createdAt,value
2022-09-24T00:01:29.870Z,11.97
2022-09-24T00:04:02.265Z,12.30
2022-09-24T00:06:33.637Z,9.57
2022-09-24T00:09:00.527Z,13.57
2022-09-24T00:11:28.790Z,8.97
2022-09-24T00:13:56.859Z,10.77
2022-09-24T00:16:25.816Z,11.73
2022-09-24T00:18:53.636Z,11.50
2022-09-24T00:21:24.160Z,10.83
2022-09-24T00:23:53.724Z,10.47
2022-09-24T00:26:39.813Z,10.93
2022-09-24T00:29:07.521Z,15.53
2022-09-24T00:31:34.631Z,13.03
2022-09-24T00:34:01.867Z,11.80
2022-09-24T00:36:28.857Z,10.10
2022-09-24T00:38:57.828Z,14.20
2022-09-24T00:41:36.816Z,13.07
2022-09-24T00:44:47.153Z,7.70
2022-09-24T00:47:27.488Z,11.73
2022-09-24T00:50:06.132Z,10.73
2022-09-24T00:52:35.909Z,11.77
2022-09-24T00:55:02.900Z,12.60
2022-09-24T00:57:29.878Z,12.17
2022-09-24T00:59:56.895Z,12.63
2022-09-24T01:02:24.326Z,11.07
2022-09-24T01:04:55.741Z,13.53
2022-09-24T01:07:23.379Z,13.27
2022-09-24T01:09:50.223Z,13.37
2022-09-24T01:12:25.814Z,13.43
2022-09-24T01:15:18.770Z,12.37
2022-09-24T01:17:54.441Z,11.47
2022-09-24T01:20:42.258Z,8.87
2022-09-24T01:23:49.092Z,10.47
2022-09-24T01:26:36.748Z,12.63
2022-09-24T01:29:22.140Z,11.47
2022-09-24T01:32:05.280Z,12.07
2022-09-24T01:34:45.181Z,9.07
2022-09-24T01:37:15.622Z,11.03
2022-09-24T01:39:45.336Z,9.83
2022-09-24T01:42:13.735Z,10.83
2022-09-24T01:44:44.320Z,13.27
2022-09-24T01:47:18.747Z,15.43
2022-09-24T01:49:46.115Z,10.53
2022-09-24T01:52:18.769Z,15.10
2022-09-24T01:54:51.794Z,11.30
2022-09-24T01:57:25.270Z,11.63
2022-09-24T02:00:09.899Z,11.03
2022-09-24T02:02:48.875Z,11.23
2022-09-24T02:05:30.653Z,15.60
2022-09-24T02:08:14.979Z,9.67
2022-09-24T02:10:58.110Z,10.73
2022-09-24T02:13:28.451Z,10.17
2022-09-24T02:16:00.731Z,12.53
2022-09-24T02:18:33.045Z,11.70
2022-09-24T02:21:03.059Z,11.53
2022-09-24T02:23:33.590Z,9.50
2022-09-24T02:26:03.850Z,9.13
2022-09-24T02:28:32.617Z,12.00
2022-09-24T02:31:14.272Z,9.97
2022-09-24T02:34:03.032Z,9.53
2022-09-24T02:36:30.345Z,12.30
2022-09-24T02:38:57.138Z,10.33
2022-09-24T02:41:24.962Z,10.27
2022-09-24T02:43:54.662Z,11.37
2022-09-24T02:46:21.535Z,13.03
2022-09-24T02:48:48.623Z,11.90
2022-09-24T02:51:15.413Z,9.50
2022-09-24T02:53:42.382Z,14.67
2022-09-24T02:56:09.209Z,13.73
2022-09-24T02:58:37.545Z,14.60
2022-09-24T03:01:05.358Z,13.33
2022-09-24T03:03:32.636Z,12.23
2022-09-24T03:05:59.405Z,12.57
2022-09-24T03:08:26.236Z,12.73
2022-09-24T03:10:56.041Z,13.60
2022-09-24T03:13:22.876Z,15.93
2022-09-24T03:15:49.644Z,14.27
2022-09-24T03:18:16.473Z,13.23
2022-09-24T03:20:44.262Z,10.23
2022-09-24T03:23:11.107Z,10.50
2022-09-24T03:25:37.930Z,20.50
2022-09-24T03:28:04.717Z,39.90
2022-09-24T03:30:49.813Z,38.47
2022-09-24T03:33:16.584Z,27.20
2022-09-24T03:35:43.337Z,17.77
2022-09-24T03:38:10.051Z,16.53
2022-09-24T03:40:36.810Z,22.93
2022-09-24T03:43:03.698Z,15.30
2022-09-24T03:45:30.486Z,18.90
2022-09-24T03:47:57.262Z,24.13
2022-09-24T03:50:24.092Z,74.00
2022-09-24T03:52:50.835Z,63.17
2022-09-24T03:55:17.608Z,31.53
2022-09-24T03:57:44.447Z,30.77
2022-09-24T04:00:11.895Z,24.93
2022-09-24T04:02:40.721Z,107.80
2022-09-24T04:05:07.936Z,45.87
2022-09-24T04:07:34.683Z,22.57
2022-09-24T04:10:02.007Z,20.60
2022-09-24T04:12:29.651Z,16.97
2022-09-24T04:14:56.468Z,11.30
2022-09-24T04:17:23.217Z,11.60
2022-09-24T04:19:51.010Z,13.37
2022-09-24T04:22:17.755Z,10.00
2022-09-24T04:24:44.703Z,10.47
2022-09-24T04:27:11.817Z,11.93
2022-09-24T04:29:38.540Z,9.93
2022-09-24T04:32:05.435Z,9.43
2022-09-24T04:34:33.308Z,11.77
2022-09-24T04:37:00.074Z,9.07
2022-09-24T04:39:27.330Z,8.37
2022-09-24T04:41:54.778Z,9.17
2022-09-24T04:44:21.587Z,8.77
2022-09-24T04:46:48.983Z,7.40
2022-09-24T04:49:15.849Z,7.93
2022-09-24T04:51:42.556Z,11.97
2022-09-24T04:54:09.959Z,8.67
2022-09-24T04:56:36.924Z,7.00
2022-09-24T04:59:04.898Z,7.30
2022-09-24T05:01:31.780Z,6.97
2022-09-24T05:03:58.591Z,8.03
2022-09-24T05:06:25.596Z,7.07
2022-09-24T05:08:52.906Z,7.57
2022-09-24T05:11:19.970Z,7.53
2022-09-24T05:13:46.792Z,7.40
2022-09-24T05:16:13.546Z,8.87
2022-09-24T05:18:41.120Z,8.03
2022-09-24T05:21:08.010Z,7.50
2022-09-24T05:23:34.810Z,7.63
2022-09-24T05:26:20.308Z,6.57
2022-09-24T05:28:47.304Z,7.47
2022-09-24T05:31:14.248Z,7.53
2022-09-24T05:33:41.041Z,9.80
2022-09-24T05:36:07.887Z,9.27
2022-09-24T05:38:34.628Z,7.13
2022-09-24T05:41:01.762Z,7.53
2022-09-24T05:43:28.650Z,9.10
2022-09-24T05:45:57.183Z,9.87
2022-09-24T05:48:24.223Z,7.40
2022-09-24T05:50:52.087Z,7.73
2022-09-24T05:53:19.080Z,8.87
2022-09-24T05:55:45.804Z,8.40
2022-09-24T05:58:13.637Z,8.60
2022-09-24T06:00:40.483Z,8.47
2022-09-24T06:03:12.550Z,7.40
2022-09-24T06:05:43.491Z,6.53
2022-09-24T06:08:10.237Z,9.93
2022-09-24T06:10:37.048Z,7.63
2022-09-24T06:13:04.039Z,10.67
2022-09-24T06:15:31.062Z,10.23
2022-09-24T06:17:57.848Z,8.40
2022-09-24T06:20:24.554Z,7.03
2022-09-24T06:22:54.437Z,8.13
2022-09-24T06:25:21.148Z,8.00
2022-09-24T06:28:00.712Z,10.17
2022-09-24T06:30:33.915Z,8.93
2022-09-24T06:33:05.600Z,7.70
2022-09-24T06:35:42.839Z,11.50
2022-09-24T06:38:12.970Z,8.67
2022-09-24T06:40:40.157Z,9.60
2022-09-24T06:43:08.148Z,9.53
2022-09-24T06:45:35.363Z,13.30
2022-09-24T06:48:04.261Z,14.77
2022-09-24T06:50:32.767Z,9.37
2022-09-24T06:53:00.060Z,12.97
2022-09-24T06:55:28.959Z,11.63
2022-09-24T06:58:23.865Z,13.10
2022-09-24T07:01:01.615Z,16.60
2022-09-24T07:03:31.631Z,13.90
2022-09-24T07:06:02.126Z,13.20
2022-09-24T07:08:29.291Z,12.20
2022-09-24T07:10:56.132Z,11.13
2022-09-24T07:13:23.019Z,10.27
2022-09-24T07:15:51.265Z,11.80
2022-09-24T07:18:19.291Z,13.73
2022-09-24T07:20:55.221Z,11.23
2022-09-24T07:23:22.820Z,10.40
2022-09-24T07:25:55.081Z,12.07
2022-09-24T07:28:21.889Z,13.20
2022-09-24T07:30:56.857Z,11.47
2022-09-24T07:33:23.604Z,11.40
2022-09-24T07:35:51.091Z,11.03
2022-09-24T07:38:18.333Z,9.97
2022-09-24T07:40:45.324Z,10.53
2022-09-24T07:43:14.170Z,9.27
2022-09-24T07:45:42.224Z,9.50
2022-09-24T07:48:10.879Z,7.73
2022-09-24T07:50:42.667Z,12.23
2022-09-24T07:53:13.377Z,7.57
2022-09-24T07:55:41.044Z,12.47
2022-09-24T07:58:15.041Z,7.53
2022-09-24T08:00:42.739Z,8.77
2022-09-24T08:03:09.791Z,10.37
2022-09-24T08:05:37.311Z,13.00
2022-09-24T08:08:04.101Z,11.47
2022-09-24T08:10:30.805Z,21.37
2022-09-24T08:13:02.317Z,19.93
2022-09-24T08:15:29.083Z,13.73
2022-09-24T08:18:03.301Z,12.13
2022-09-24T08:20:31.690Z,8.70
2022-09-24T08:23:06.021Z,9.00
2022-09-24T08:25:32.949Z,9.57
2022-09-24T08:28:04.467Z,6.53
2022-09-24T08:30:31.941Z,6.87
2022-09-24T08:32:59.141Z,6.77
2022-09-24T08:35:26.086Z,7.27
2022-09-24T08:37:56.685Z,7.40
2022-09-24T08:40:26.867Z,6.27
2022-09-24T08:43:09.915Z,6.80
2022-09-24T08:46:10.230Z,8.57
2022-09-24T08:48:42.308Z,6.87
2022-09-24T08:51:17.951Z,5.83
2022-09-24T08:53:57.947Z,5.73
2022-09-24T08:56:31.087Z,6.50
2022-09-24T08:59:26.780Z,7.63
2022-09-24T09:02:02.975Z,7.83
2022-09-24T09:04:41.797Z,6.90
2022-09-24T09:07:14.304Z,5.90
2022-09-24T09:10:00.717Z,7.73
2022-09-24T09:12:53.910Z,6.43
2022-09-24T09:15:33.765Z,7.20
2022-09-24T09:18:21.553Z,8.00
2022-09-24T09:20:49.867Z,4.97
2022-09-24T09:23:27.899Z,4.30
2022-09-24T09:26:11.366Z,6.07
2022-09-24T09:28:38.369Z,6.90
2022-09-24T09:31:36.698Z,5.50
2022-09-24T09:34:36.659Z,5.97
2022-09-24T09:37:13.081Z,3.80
2022-09-24T09:39:49.577Z,6.57
2022-09-24T09:42:36.371Z,6.93
2022-09-24T09:45:24.157Z,4.20
2022-09-24T09:47:57.096Z,3.93
2022-09-24T09:50:28.802Z,4.70
2022-09-24T09:52:56.289Z,4.53
2022-09-24T09:55:31.258Z,4.70
2022-09-24T09:58:16.368Z,4.70
2022-09-24T10:00:43.920Z,4.83
2022-09-24T10:03:30.807Z,6.80
2022-09-24T10:06:03.405Z,3.07
2022-09-24T10:08:30.235Z,6.30
2022-09-24T10:10:59.472Z,3.43
2022-09-24T10:13:27.577Z,4.17
2022-09-24T10:15:57.150Z,4.83
2022-09-24T10:18:37.780Z,5.13
2022-09-24T10:21:09.965Z,3.20
2022-09-24T10:23:39.462Z,4.57
2022-09-24T10:26:07.182Z,2.60
2022-09-24T10:29:05.237Z,4.47
2022-09-24T10:31:35.555Z,1.40
2022-09-24T10:34:03.140Z,3.97
2022-09-24T10:36:32.590Z,3.73
2022-09-24T10:39:02.160Z,6.77
2022-09-24T10:41:30.655Z,4.30
2022-09-24T10:44:03.131Z,3.33
2022-09-24T10:47:04.497Z,3.77
2022-09-24T10:49:34.538Z,6.53
2022-09-24T10:52:24.583Z,3.80
2022-09-24T10:55:18.111Z,2.07
2022-09-24T10:58:22.829Z,5.27
2022-09-24T11:01:19.394Z,5.03
2022-09-24T11:03:53.281Z,3.17
2022-09-24T11:06:41.438Z,2.87
2022-09-24T11:09:44.061Z,2.80
2022-09-24T11:12:21.799Z,4.10
2022-09-24T11:14:57.554Z,2.63
2022-09-24T11:17:59.612Z,4.57
2022-09-24T11:20:44.052Z,2.77
2022-09-24T11:23:20.582Z,3.13
2022-09-24T11:26:18.045Z,2.77
2022-09-24T11:29:14.118Z,4.07
2022-09-24T11:31:54.207Z,2.67
2022-09-24T11:34:50.615Z,3.67
2022-09-24T11:37:53.107Z,1.93
2022-09-24T11:40:22.834Z,4.33
2022-09-24T11:43:13.108Z,4.07
2022-09-24T11:46:17.883Z,2.83
2022-09-24T11:49:26.385Z,2.40
2022-09-24T11:51:59.106Z,3.53
2022-09-24T11:54:52.991Z,3.23
2022-09-24T11:57:22.364Z,2.63
2022-09-24T12:00:01.127Z,2.30
2022-09-24T12:02:41.248Z,3.70
2022-09-24T12:05:46.713Z,2.93
2022-09-24T12:08:21.558Z,4.27
2022-09-24T12:10:59.047Z,3.20
2022-09-24T12:13:55.525Z,2.67
2022-09-24T12:16:28.950Z,2.20
2022-09-24T12:18:57.005Z,3.97
2022-09-24T12:21:37.134Z,2.47
2022-09-24T12:24:13.798Z,2.63
2022-09-24T12:26:42.853Z,4.60
2022-09-24T12:29:58.662Z,2.90
2022-09-24T12:32:56.126Z,2.97
2022-09-24T12:35:23.670Z,4.77
2022-09-24T12:37:59.203Z,2.30
2022-09-24T12:40:57.425Z,3.30
2022-09-24T12:44:02.202Z,3.03
2022-09-24T12:46:39.916Z,4.40
2022-09-24T12:49:24.802Z,1.27
2022-09-24T12:51:57.212Z,2.83
2022-09-24T12:54:28.388Z,2.30
2022-09-24T12:57:24.302Z,3.33
2022-09-24T13:00:01.442Z,2.63
2022-09-24T13:02:33.278Z,3.07
2022-09-24T13:05:02.866Z,3.37
2022-09-24T13:07:40.938Z,4.43
2022-09-24T13:10:31.948Z,3.67
2022-09-24T13:13:00.550Z,2.80
2022-09-24T13:15:31.804Z,1.50
2022-09-24T13:18:07.663Z,3.73
2022-09-24T13:20:36.199Z,2.30
2022-09-24T13:23:19.550Z,2.77
2022-09-24T13:25:58.942Z,3.87
2022-09-24T13:28:38.219Z,2.60
2022-09-24T13:31:22.292Z,1.87
2022-09-24T13:34:06.847Z,3.53
2022-09-24T13:36:36.812Z,4.13
2022-09-24T13:39:30.590Z,1.73
2022-09-24T13:42:06.578Z,2.23
2022-09-24T13:44:47.738Z,3.13
2022-09-24T13:47:36.281Z,2.03
2022-09-24T13:50:27.697Z,4.40
2022-09-24T13:52:58.008Z,5.07
2022-09-24T13:55:46.772Z,2.57
2022-09-24T13:58:34.008Z,3.03
2022-09-24T14:01:05.453Z,2.10
2022-09-24T14:03:36.844Z,5.77
2022-09-24T14:06:13.035Z,5.33
2022-09-24T14:08:45.219Z,2.17
2022-09-24T14:11:24.434Z,3.23
2022-09-24T14:13:52.199Z,3.33
2022-09-24T14:16:26.665Z,3.10
2022-09-24T14:19:06.289Z,5.53
2022-09-24T14:21:37.757Z,2.50
2022-09-24T14:24:44.385Z,5.00
2022-09-24T14:27:15.616Z,3.80
2022-09-24T14:29:55.901Z,3.90
2022-09-24T14:32:32.700Z,3.57
2022-09-24T14:35:05.965Z,3.77
2022-09-24T14:37:54.508Z,4.77
2022-09-24T14:40:23.157Z,2.00
2022-09-24T14:43:00.034Z,1.67
2022-09-24T14:45:34.452Z,1.83
2022-09-24T14:48:02.898Z,3.13
2022-09-24T14:50:40.798Z,2.93
2022-09-24T14:53:27.719Z,3.53
2022-09-24T14:55:54.617Z,4.97
2022-09-24T14:58:33.896Z,2.53
2022-09-24T15:01:31.062Z,1.30
2022-09-24T15:04:00.832Z,3.77
2022-09-24T15:06:33.091Z,3.53
2022-09-24T15:09:21.465Z,4.03
2022-09-24T15:11:48.723Z,3.00
2022-09-24T15:14:20.070Z,3.33
2022-09-24T15:16:47.848Z,5.60
2022-09-24T15:19:26.973Z,3.07
2022-09-24T15:21:56.733Z,3.60
2022-09-24T15:24:25.223Z,2.43
2022-09-24T15:27:15.089Z,2.53
2022-09-24T15:29:41.925Z,2.90
2022-09-24T15:32:19.889Z,2.00
2022-09-24T15:34:47.392Z,4.70
2022-09-24T15:37:21.298Z,2.83
2022-09-24T15:39:49.868Z,1.57
2022-09-24T15:42:24.232Z,5.00
2022-09-24T15:44:51.415Z,2.37
2022-09-24T15:47:18.713Z,4.53
2022-09-24T15:49:45.697Z,6.30
2022-09-24T15:52:28.397Z,4.17
2022-09-24T15:54:57.942Z,4.10
2022-09-24T15:57:26.584Z,3.53
2022-09-24T15:59:54.453Z,5.33
2022-09-24T16:02:32.159Z,1.90
2022-09-24T16:05:03.498Z,2.30
2022-09-24T16:07:30.493Z,1.23
2022-09-24T16:09:57.308Z,3.60
2022-09-24T16:12:27.946Z,5.53
2022-09-24T16:14:58.913Z,5.83
2022-09-24T16:17:29.200Z,4.23
2022-09-24T16:19:56.196Z,4.73
2022-09-24T16:22:23.039Z,3.10
2022-09-24T16:24:49.901Z,3.53
2022-09-24T16:27:16.739Z,2.73
2022-09-24T16:29:43.503Z,3.63
2022-09-24T16:32:10.786Z,2.63
2022-09-24T16:34:37.485Z,3.13
2022-09-24T16:37:04.246Z,3.77
2022-09-24T16:39:31.657Z,3.40
2022-09-24T16:41:58.696Z,6.57
2022-09-24T16:44:25.557Z,5.03
2022-09-24T16:46:52.432Z,5.30
2022-09-24T16:49:19.631Z,4.03
2022-09-24T16:51:46.410Z,4.77
2022-09-24T16:54:13.751Z,4.47
2022-09-24T16:56:40.562Z,3.67
2022-09-24T16:59:07.438Z,6.50
2022-09-24T17:01:34.277Z,3.53
2022-09-24T17:04:01.367Z,3.67
2022-09-24T17:06:30.889Z,4.57
2022-09-24T17:09:16.606Z,6.03
2022-09-24T17:11:45.102Z,5.03
2022-09-24T17:14:12.421Z,6.53
2022-09-24T17:16:42.976Z,7.43
2022-09-24T17:19:11.149Z,3.77
2022-09-24T17:21:40.820Z,7.07
2022-09-24T17:24:07.878Z,9.37
2022-09-24T17:26:35.026Z,5.87
2022-09-24T17:29:02.171Z,3.87
2022-09-24T17:31:29.016Z,4.67
2022-09-24T17:34:04.766Z,4.00
2022-09-24T17:36:35.081Z,5.73
2022-09-24T17:39:02.601Z,4.23
2022-09-24T17:41:30.539Z,3.40
2022-09-24T17:44:01.060Z,5.83
2022-09-24T17:46:30.158Z,5.93
2022-09-24T17:48:59.524Z,5.80
2022-09-24T17:51:36.648Z,4.77
2022-09-24T17:54:09.632Z,8.00
2022-09-24T17:56:40.534Z,5.83
2022-09-24T17:59:09.080Z,5.10
2022-09-24T18:01:37.985Z,5.80
2022-09-24T18:04:08.111Z,4.13
2022-09-24T18:06:39.605Z,3.70
2022-09-24T18:09:07.047Z,6.43
2022-09-24T18:11:42.427Z,5.03
2022-09-24T18:14:14.744Z,3.83
2022-09-24T18:16:42.183Z,5.23
2022-09-24T18:19:10.499Z,6.07
2022-09-24T18:21:37.367Z,2.33
2022-09-24T18:24:04.589Z,7.50
2022-09-24T18:26:36.749Z,3.83
2022-09-24T18:29:10.331Z,8.03
2022-09-24T18:31:38.017Z,15.43
2022-09-24T18:34:07.109Z,8.00
2022-09-24T18:36:39.267Z,7.70
2022-09-24T18:39:08.615Z,5.53
2022-09-24T18:41:36.908Z,5.03
2022-09-24T18:44:04.517Z,5.00
2022-09-24T18:46:32.825Z,5.90
2022-09-24T18:49:00.380Z,3.10
2022-09-24T18:51:32.838Z,6.57
2022-09-24T18:54:03.192Z,6.43
2022-09-24T18:56:33.550Z,5.17
2022-09-24T18:59:07.195Z,5.70
2022-09-24T19:01:37.081Z,4.13
2022-09-24T19:04:04.486Z,5.93
2022-09-24T19:06:31.821Z,4.70
2022-09-24T19:08:58.658Z,5.60
2022-09-24T19:11:25.409Z,7.17
2022-09-24T19:13:54.377Z,4.87
2022-09-24T19:16:25.535Z,6.57
2022-09-24T19:18:53.400Z,4.97
2022-09-24T19:21:23.067Z,6.47
2022-09-24T19:23:52.124Z,6.13
2022-09-24T19:26:22.134Z,4.00
2022-09-24T19:28:52.901Z,4.93
2022-09-24T19:31:22.005Z,5.10
2022-09-24T19:33:50.751Z,4.70
2022-09-24T19:36:18.572Z,5.53
2022-09-24T19:38:47.285Z,5.07
2022-09-24T19:41:14.127Z,6.90
2022-09-24T19:43:43.685Z,3.47
2022-09-24T19:46:14.617Z,4.40
2022-09-24T19:48:44.949Z,3.77
2022-09-24T19:51:31.795Z,6.67
2022-09-24T19:54:01.061Z,5.13
2022-09-24T19:56:28.402Z,6.43
2022-09-24T19:58:57.554Z,8.97
2022-09-24T20:01:28.264Z,5.60
2022-09-24T20:03:56.587Z,7.13
2022-09-24T20:06:27.086Z,5.03
2022-09-24T20:08:53.888Z,4.23
2022-09-24T20:11:22.204Z,7.00
2022-09-24T20:13:50.919Z,6.60
2022-09-24T20:16:20.442Z,6.40
2022-09-24T20:18:48.756Z,6.37
2022-09-24T20:21:17.249Z,4.90
2022-09-24T20:23:45.368Z,5.23
2022-09-24T20:26:32.035Z,5.13
2022-09-24T20:28:59.175Z,3.77
2022-09-24T20:31:26.572Z,6.03
2022-09-24T20:33:53.641Z,6.77
2022-09-24T20:36:24.028Z,9.87
2022-09-24T20:38:51.941Z,7.60
2022-09-24T20:41:21.654Z,6.00
2022-09-24T20:43:48.857Z,9.37
2022-09-24T20:46:21.938Z,6.63
2022-09-24T20:48:49.005Z,3.43
2022-09-24T20:51:18.477Z,7.10
2022-09-24T20:53:47.040Z,5.60
2022-09-24T20:56:16.066Z,7.80
2022-09-24T20:58:43.939Z,6.20
2022-09-24T21:01:11.754Z,6.50
2022-09-24T21:03:44.944Z,7.70
2022-09-24T21:06:15.276Z,6.43
2022-09-24T21:08:44.895Z,5.77
2022-09-24T21:11:18.331Z,5.37
2022-09-24T21:13:50.875Z,8.17
2022-09-24T21:16:22.569Z,7.37
2022-09-24T21:18:50.509Z,9.80
2022-09-24T21:21:22.345Z,7.27
2022-09-24T21:23:51.442Z,8.50
2022-09-24T21:26:21.625Z,6.67
2022-09-24T21:28:51.044Z,8.87
2022-09-24T21:31:23.690Z,5.97
2022-09-24T21:33:54.676Z,8.80
2022-09-24T21:36:24.362Z,5.67
2022-09-24T21:39:00.242Z,10.60
2022-09-24T21:41:33.005Z,7.23
2022-09-24T21:44:00.295Z,9.13
2022-09-24T21:46:29.184Z,6.43
2022-09-24T21:48:56.120Z,5.90
2022-09-24T21:51:23.826Z,6.73
2022-09-24T21:53:58.617Z,6.83
2022-09-24T21:56:26.722Z,8.50
2022-09-24T21:58:53.882Z,5.20
2022-09-24T22:01:33.892Z,5.83
2022-09-24T22:04:05.795Z,6.53
2022-09-24T22:06:33.137Z,6.83
2022-09-24T22:09:05.386Z,8.90
2022-09-24T22:11:33.303Z,5.57
2022-09-24T22:14:01.271Z,6.97
2022-09-24T22:16:30.028Z,7.50
2022-09-24T22:18:57.019Z,6.17
2022-09-24T22:21:24.049Z,9.30
2022-09-24T22:23:50.988Z,6.47
2022-09-24T22:26:18.672Z,8.47
2022-09-24T22:28:45.647Z,5.57
2022-09-24T22:31:15.497Z,8.83
2022-09-24T22:34:01.668Z,7.43
2022-09-24T22:36:30.534Z,7.87
2022-09-24T22:38:59.677Z,8.10
2022-09-24T22:41:30.606Z,7.50
2022-09-24T22:43:58.177Z,6.83
2022-09-24T22:46:27.235Z,9.03
2022-09-24T22:48:55.711Z,6.67
2022-09-24T22:51:23.840Z,9.47
2022-09-24T22:53:51.800Z,9.03
2022-09-24T22:56:21.465Z,7.17
2022-09-24T22:59:01.616Z,5.47
2022-09-24T23:01:31.868Z,7.97
2022-09-24T23:04:00.282Z,11.60
2022-09-24T23:06:28.082Z,5.90
2022-09-24T23:08:55.729Z,5.27
2022-09-24T23:11:25.377Z,10.17
2022-09-24T23:14:01.032Z,10.47
2022-09-24T23:16:30.647Z,7.67
2022-09-24T23:19:00.074Z,5.53
2022-09-24T23:21:31.263Z,7.93
2022-09-24T23:24:00.341Z,8.43
2022-09-24T23:26:28.571Z,10.70
2022-09-24T23:28:56.726Z,4.97
2022-09-24T23:31:27.365Z,6.47
2022-09-24T23:33:56.284Z,10.07
2022-09-24T23:36:24.491Z,8.73
2022-09-24T23:38:51.570Z,7.63
2022-09-24T23:41:18.519Z,10.50
2022-09-24T23:43:46.178Z,10.87
2022-09-24T23:46:13.644Z,7.13
2022-09-24T23:48:40.855Z,7.17
2022-09-24T23:51:08.410Z,10.23
2022-09-24T23:53:36.158Z,7.00
2022-09-24T23:56:04.287Z,9.63
2022-09-24T23:58:31.536Z,7.70
